FYKT

Details ICAO FYKT (KMP)
Name KEETMANSHOOP
Region Namibia
Timezone Africa/Windhoek (UTC+2.0)
Plans Departing 12
Arriving 12
Stats Elevation 3,506 ft / 1,069 m (AMSL)
Location -26.538792° 18.111776°
Runways 2
Magnetic Variation 16.812° W
Sunrise 2017-12-12 03:49:23 UTC / 2017-12-12 05:49:23 Local
Sunset 2017-12-12 17:36:00 UTC / 2017-12-12 19:36:00 Local
Advertisement - Login to hide

Runways

ID Width Length Bearing (true) Bearing (mag) Surface Threshold Offset Overrun Length
04 148 ft / 45 m 7,557 ft / 2,303 m 15.97° 32.78° Asphalt 0 ft / 0 m 0 ft / 0 m
18 98 ft / 30 m 4,697 ft / 1,432 m 155.34° 172.15° Gravel 0 ft / 0 m 0 ft / 0 m
22 148 ft / 45 m 7,557 ft / 2,303 m 195.96° 212.77° Asphalt 0 ft / 0 m 0 ft / 0 m
36 98 ft / 30 m 4,697 ft / 1,432 m 335.34° 352.15° Gravel 0 ft / 0 m 0 ft / 0 m

Map

Weather


0- 5 10 15 20 25 30 35+ Temperature / ° C

Clouds and Precipitation
Forecast for 2017-12-12 18:00 UTC. Updated an hour ago

Ground ~20,000 ft ~40,000 ft Winds

METAR

FYKT 121300Z AUTO 00000KT //// 33/M13 Q1014

TAF

Not found

Frequencies

Tower 118.30 MHz TWR
Warning: Do not use this data for real-world aviation or navigation. No guarantee of current accuracy is given.